KGAF Airport (Hutson Field) Information

FAA: GAF - ICAO: KGAF

KGAF Airport Location

State North Dakota
County Walsh
City Grafton
KGAF Airport is 2 miles east-southeast of Grafton, ND.
Latitude 48-24-16.9760N
Longitude 097-22-15.4440W
Elevation 824ft

KGAF Airport METARs

METAR KGAF 182255Z AUTO 15008KT 9SM CLR 19/10 A2966 RMK AO2
Altimeter 29.66"
Temperature 19.0°C (66.2°F)
Wind 150° at 8KT
Clouds Skies are clear.
Visibility 9.0mi
Time observed: 2021-10-18T22:55:00Z

KGAF Airport Details

Status Operational
Activation October 1947
Ownership Public
Usage Public
Chart TWIN CITIES
ATC on-site No
Beacon schedule sunset-sunrise
Beacon color clear green

KGAF Airport Contacts

Owner GRAFTON ARPT AUTH
Owner address PO BOX 578, GRAFTON, ND 58237
Owner phone 701-352-0271
Manager ROBERT SCHROEDER
Manager address N/A, ERIE, ND 58029
Manager phone 701-668-2719

KGAF Airport (Hutson Field) Radio Frequencies

KGAF (Airport) Radio Frequencies

UNICOM 122.8
Common traffic advisory frequency (CTAF) 122.8